Time;durP1;ratioP1;P1;durP2;ratioP2;P2;SDS_P1;SDS_P2;PMS_P1;PMS_P2;Temp;Humidity;BMP_temperature;BMP_pressure;BME280_temperature;BME280_humidity;BME280_pressure;Samples;Min_cycle;Max_cycle;Signal;HPM_P1;HPM_P2
2023/08/28 06:00:35;;;;;;;2.90;2.58;;;;;;;;;;10629162;28;20043;-85
2023/08/28 06:06:10;;;;;;;4.53;3.05;;;;;;;;;;10629597;28;20050;-85
2023/08/28 06:11:12;;;;;;;4.20;2.90;;;;;;;;;;10537972;28;20079;-85
2023/08/28 06:16:45;;;;;;;3.40;2.50;;;;;;;;;;10516365;28;20506;-85
2023/08/28 06:22:26;;;;;;;3.47;2.35;;;;;;;;;;10576178;28;20028;-85
2023/08/28 06:28:24;;;;;;;5.00;4.00;;;;;;;;;;10564167;28;20032;-85
2023/08/28 06:39:32;;;;;;;4.45;3.60;;;;;;;;;;10562884;28;20024;-85
2023/08/28 06:45:05;;;;;;;5.63;4.30;;;;;;;;;;10451695;28;20075;-84
2023/08/28 06:50:06;;;;;;;8.15;5.93;;;;;;;;;;10460856;28;20037;-85
2023/08/28 06:55:08;;;;;;;4.93;2.33;;;;;;;;;;10603118;28;20050;-85
2023/08/28 07:00:11;;;;;;;4.03;2.33;;;;;;;;;;10583388;28;20072;-85
2023/08/28 07:05:12;;;;;;;7.22;6.25;;;;;;;;;;10584739;28;20174;-85
2023/08/28 07:10:13;;;;;;;2.60;1.73;;;;;;;;;;10586495;28;20035;-84
2023/08/28 07:15:20;;;;;;;4.03;2.60;;;;;;;;;;10585522;28;20024;-85
2023/08/28 07:20:23;;;;;;;4.55;3.42;;;;;;;;;;10578459;28;20030;-85
2023/08/28 07:25:24;;;;;;;8.32;3.92;;;;;;;;;;10597657;28;20484;-86
2023/08/28 07:30:25;;;;;;;6.88;4.18;;;;;;;;;;10578985;28;20073;-82
2023/08/28 07:35:29;;;;;;;5.93;4.28;;;;;;;;;;10589234;28;20024;-82
2023/08/28 07:40:30;;;;;;;7.82;4.00;;;;;;;;;;10586342;28;20030;-81
2023/08/28 07:45:31;;;;;;;6.63;3.83;;;;;;;;;;10584805;28;20024;-86
2023/08/28 07:50:32;;;;;;;8.23;4.18;;;;;;;;;;10585816;28;20023;-86
2023/08/28 07:55:33;;;;;;;7.22;4.25;;;;;;;;;;10588391;28;20074;-89
2023/08/28 08:00:34;;;;;;;5.90;4.88;;;;;;;;;;10601810;28;20027;-86
2023/08/28 08:05:36;;;;;;;6.00;4.55;;;;;;;;;;10595483;28;20028;-86
2023/08/28 08:10:37;;;;;;;7.85;5.10;;;;;;;;;;10589140;28;20042;-87
2023/08/28 08:15:38;;;;;;;7.97;4.78;;;;;;;;;;10591079;28;20032;-86
2023/08/28 08:20:39;;;;;;;7.30;4.72;;;;;;;;;;10595421;28;20027;-87
2023/08/28 08:25:40;;;;;;;7.05;4.65;;;;;;;;;;10616708;28;20063;-85
2023/08/28 08:30:41;;;;;;;6.47;4.28;;;;;;;;;;10613301;28;20032;-82
2023/08/28 08:35:42;;;;;;;7.13;5.45;;;;;;;;;;10607504;28;20122;-82
2023/08/28 08:40:43;;;;;;;7.53;6.70;;;;;;;;;;10593971;28;20034;-83
2023/08/28 08:45:45;;;;;;;6.53;5.20;;;;;;;;;;10589785;28;20095;-84
2023/08/28 08:50:47;;;;;;;9.30;5.95;;;;;;;;;;10585797;28;20035;-84
2023/08/28 08:55:50;;;;;;;6.35;4.90;;;;;;;;;;10590516;28;20431;-84
2023/08/28 09:00:54;;;;;;;7.55;5.22;;;;;;;;;;10589263;28;20035;-85
2023/08/28 09:05:56;;;;;;;5.60;4.60;;;;;;;;;;10590144;28;20080;-83
2023/08/28 09:11:01;;;;;;;9.60;8.70;;;;;;;;;;10586028;28;20032;-83
2023/08/28 09:16:03;;;;;;;9.20;6.50;;;;;;;;;;10595497;28;20106;-83
2023/08/28 09:21:14;;;;;;;8.27;4.90;;;;;;;;;;10589615;28;20024;-83
2023/08/28 09:26:22;;;;;;;6.40;5.25;;;;;;;;;;10584296;28;20019;-84
2023/08/28 09:31:34;;;;;;;11.63;7.10;;;;;;;;;;10585554;28;20059;-82
2023/08/28 09:36:36;;;;;;;6.32;4.35;;;;;;;;;;10588680;28;20030;-82
2023/08/28 09:41:39;;;;;;;6.50;3.97;;;;;;;;;;10586787;28;20024;-82
2023/08/28 09:46:42;;;;;;;6.47;4.97;;;;;;;;;;10590691;28;20236;-82
2023/08/28 09:51:44;;;;;;;7.03;5.57;;;;;;;;;;10586184;28;20109;-83
2023/08/28 09:56:45;;;;;;;8.00;5.78;;;;;;;;;;10586567;28;20077;-83
2023/08/28 10:01:47;;;;;;;9.13;6.50;;;;;;;;;;10589072;28;20024;-84
2023/08/28 10:06:49;;;;;;;9.32;7.30;;;;;;;;;;10589617;28;20023;-82
2023/08/28 10:11:51;;;;;;;8.88;7.25;;;;;;;;;;10588397;28;20178;-83
2023/08/28 10:16:57;;;;;;;10.25;8.00;;;;;;;;;;10589084;28;20122;-82
2023/08/28 10:21:58;;;;;;;10.25;7.72;;;;;;;;;;10588828;28;20034;-83
2023/08/28 10:27:00;;;;;;;8.88;6.80;;;;;;;;;;10586774;28;20032;-83
2023/08/28 10:32:02;;;;;;;7.00;6.28;;;;;;;;;;10586381;28;20019;-85
2023/08/28 10:37:05;;;;;;;6.10;5.10;;;;;;;;;;10596142;28;20034;-85
2023/08/28 10:42:06;;;;;;;7.95;5.43;;;;;;;;;;10591286;28;20012;-86
2023/08/28 10:47:07;;;;;;;5.55;4.30;;;;;;;;;;10592437;28;20389;-84
2023/08/28 10:52:10;;;;;;;5.05;4.13;;;;;;;;;;10591419;28;20042;-84
2023/08/28 10:57:27;;;;;;;7.68;3.35;;;;;;;;;;10589783;28;20028;-84
2023/08/28 11:02:48;;;;;;;6.85;3.53;;;;;;;;;;10587160;28;20049;-85
2023/08/28 11:07:54;;;;;;;4.28;3.40;;;;;;;;;;10594438;28;20027;-85
2023/08/28 11:12:56;;;;;;;3.50;2.65;;;;;;;;;;10594623;28;20019;-85
2023/08/28 11:18:14;;;;;;;5.35;3.20;;;;;;;;;;10588661;28;20008;-82
2023/08/28 11:23:25;;;;;;;4.03;2.70;;;;;;;;;;10590867;28;20039;-85
2023/08/28 11:28:31;;;;;;;5.82;2.40;;;;;;;;;;10587482;28;20043;-85
2023/08/28 11:33:39;;;;;;;3.88;2.22;;;;;;;;;;10586888;28;20023;-84
2023/08/28 11:38:43;;;;;;;3.40;2.20;;;;;;;;;;10605981;28;20039;-85
2023/08/28 11:43:48;;;;;;;3.70;1.67;;;;;;;;;;10585910;28;20023;-84
2023/08/28 11:48:49;;;;;;;3.53;2.00;;;;;;;;;;10588353;28;20027;-85
2023/08/28 11:53:50;;;;;;;3.28;2.00;;;;;;;;;;10588537;28;20404;-85
2023/08/28 11:58:54;;;;;;;2.00;1.58;;;;;;;;;;10638541;22;20040;-85
2023/08/28 12:04:05;;;;;;;5.47;4.30;;;;;;;;;;10554597;28;20043;-85
2023/08/28 12:14:49;;;;;;;3.97;2.20;;;;;;;;;;10560978;28;20035;-87
2023/08/28 12:19:50;;;;;;;2.00;1.50;;;;;;;;;;10554829;28;20115;-86
2023/08/28 12:24:52;;;;;;;2.83;1.60;;;;;;;;;;10555385;28;20537;-85
2023/08/28 12:29:54;;;;;;;5.07;1.75;;;;;;;;;;10554398;28;20132;-85
2023/08/28 12:35:08;;;;;;;3.00;1.60;;;;;;;;;;10557765;28;20397;-85
2023/08/28 12:40:11;;;;;;;1.77;1.50;;;;;;;;;;10559307;28;20059;-86
2023/08/28 12:45:12;;;;;;;3.20;1.48;;;;;;;;;;10562399;28;20047;-85
2023/08/28 12:50:14;;;;;;;1.80;1.20;;;;;;;;;;10575263;28;20028;-85
2023/08/28 12:55:15;;;;;;;1.40;1.20;;;;;;;;;;10575101;28;20488;-86
2023/08/28 13:00:17;;;;;;;1.67;1.20;;;;;;;;;;10569810;28;20100;-86
2023/08/28 13:05:18;;;;;;;1.92;1.50;;;;;;;;;;10558025;28;20553;-86
2023/08/28 13:10:19;;;;;;;2.20;1.60;;;;;;;;;;10557726;28;20500;-85
2023/08/28 13:15:20;;;;;;;2.28;1.50;;;;;;;;;;10560625;28;20020;-85
2023/08/28 13:20:21;;;;;;;4.00;1.70;;;;;;;;;;10554780;28;20032;-86
2023/08/28 13:25:23;;;;;;;3.00;1.50;;;;;;;;;;10556664;28;20036;-85
2023/08/28 13:30:24;;;;;;;3.20;1.80;;;;;;;;;;10558041;28;20028;-85
2023/08/28 13:35:25;;;;;;;4.38;2.10;;;;;;;;;;10557077;28;20048;-84
2023/08/28 13:40:26;;;;;;;3.65;1.30;;;;;;;;;;10558115;28;20040;-85
2023/08/28 13:45:27;;;;;;;2.67;1.52;;;;;;;;;;10575241;28;20091;-85
2023/08/28 13:50:28;;;;;;;2.22;1.20;;;;;;;;;;10565720;28;20102;-84
2023/08/28 13:55:31;;;;;;;2.75;1.20;;;;;;;;;;10570144;28;20024;-85
2023/08/28 14:00:32;;;;;;;6.47;4.45;;;;;;;;;;10558439;28;20044;-85
2023/08/28 14:05:33;;;;;;;1.73;1.30;;;;;;;;;;10557064;28;20036;-86
2023/08/28 14:10:34;;;;;;;2.78;1.60;;;;;;;;;;10562586;28;20501;-86
2023/08/28 14:15:37;;;;;;;3.88;1.30;;;;;;;;;;10564616;28;20131;-84
2023/08/28 14:20:38;;;;;;;2.20;1.15;;;;;;;;;;10564744;28;20055;-83
2023/08/28 14:25:40;;;;;;;1.65;1.13;;;;;;;;;;10561423;28;20088;-82
2023/08/28 14:30:41;;;;;;;1.73;1.02;;;;;;;;;;10563288;28;20025;-83
2023/08/28 14:35:43;;;;;;;4.45;1.30;;;;;;;;;;10558990;28;20035;-84
2023/08/28 14:40:49;;;;;;;4.70;1.50;;;;;;;;;;10563002;28;20043;-86
2023/08/28 14:45:52;;;;;;;2.30;1.25;;;;;;;;;;10561035;28;20028;-83
2023/08/28 14:50:54;;;;;;;3.50;1.52;;;;;;;;;;10561642;28;20489;-86
2023/08/28 14:55:56;;;;;;;2.72;1.30;;;;;;;;;;10570929;28;20028;-84
2023/08/28 15:00:57;;;;;;;2.75;1.80;;;;;;;;;;10564784;28;20044;-83
2023/08/28 15:06:01;;;;;;;1.50;0.98;;;;;;;;;;10557886;28;20115;-84
2023/08/28 15:11:02;;;;;;;2.78;1.20;;;;;;;;;;10541326;28;20027;-84
2023/08/28 15:16:03;;;;;;;2.92;1.10;;;;;;;;;;10555701;28;20028;-84
2023/08/28 15:21:06;;;;;;;2.28;1.13;;;;;;;;;;10558687;28;20048;-84
2023/08/28 15:26:07;;;;;;;2.15;1.20;;;;;;;;;;10562232;28;20054;-85
2023/08/28 15:31:08;;;;;;;1.90;1.15;;;;;;;;;;10556085;28;20156;-85
2023/08/28 15:36:09;;;;;;;1.30;0.90;;;;;;;;;;10557387;28;20508;-84
2023/08/28 15:41:10;;;;;;;1.45;1.02;;;;;;;;;;10557772;28;20032;-85
2023/08/28 15:46:11;;;;;;;2.30;1.10;;;;;;;;;;10562273;28;20086;-85
2023/08/28 15:51:13;;;;;;;2.13;0.95;;;;;;;;;;10558679;28;20016;-85
2023/08/28 15:56:15;;;;;;;1.70;0.90;;;;;;;;;;10570841;28;20084;-84
2023/08/28 16:01:16;;;;;;;1.10;1.00;;;;;;;;;;10572991;28;20040;-86
2023/08/28 16:06:17;;;;;;;1.40;0.85;;;;;;;;;;10551918;28;20036;-84
2023/08/28 16:11:18;;;;;;;1.27;0.90;;;;;;;;;;10549829;28;20122;-84
2023/08/28 16:16:20;;;;;;;4.55;1.00;;;;;;;;;;10549097;28;20024;-83
2023/08/28 16:21:21;;;;;;;1.25;0.77;;;;;;;;;;10548513;28;20092;-79
2023/08/28 16:26:22;;;;;;;1.13;0.80;;;;;;;;;;10550559;28;20024;-83
2023/08/28 16:31:24;;;;;;;3.00;1.30;;;;;;;;;;10550894;28;20052;-84
2023/08/28 16:36:26;;;;;;;1.58;1.20;;;;;;;;;;10548974;28;20060;-82
2023/08/28 16:41:33;;;;;;;1.02;0.80;;;;;;;;;;10549936;28;20032;-82
2023/08/28 16:46:35;;;;;;;1.52;1.10;;;;;;;;;;10549738;28;20074;-82
2023/08/28 16:51:36;;;;;;;7.60;6.80;;;;;;;;;;10549776;28;20025;-81
2023/08/28 16:56:38;;;;;;;1.92;1.40;;;;;;;;;;10549436;28;20053;-81
2023/08/28 17:01:39;;;;;;;2.08;1.33;;;;;;;;;;10564382;28;20031;-82
2023/08/28 17:06:40;;;;;;;2.22;2.03;;;;;;;;;;10554228;28;20394;-82
2023/08/28 17:11:41;;;;;;;2.38;1.58;;;;;;;;;;10554088;28;20020;-81
2023/08/28 17:16:42;;;;;;;2.55;1.45;;;;;;;;;;10545956;28;20193;-83
2023/08/28 17:21:43;;;;;;;1.77;1.40;;;;;;;;;;10553642;28;20063;-83
2023/08/28 17:26:47;;;;;;;2.95;1.60;;;;;;;;;;10553358;28;20028;-83
2023/08/28 17:31:49;;;;;;;2.17;1.55;;;;;;;;;;10548396;28;20032;-82
2023/08/28 17:36:50;;;;;;;3.78;1.73;;;;;;;;;;10548317;28;20028;-82
2023/08/28 17:41:52;;;;;;;1.65;1.35;;;;;;;;;;10547643;28;20092;-82
2023/08/28 17:46:53;;;;;;;1.73;1.30;;;;;;;;;;10546488;28;20553;-82
2023/08/28 17:51:54;;;;;;;2.92;1.33;;;;;;;;;;10545792;28;20016;-83
2023/08/28 17:56:56;;;;;;;1.42;1.15;;;;;;;;;;10545220;28;20123;-83
